Latest Weather Observations for Tocal

IDN60801

Issued at 9:52 pm EST Thursday 22 August 2019 (issued every 10 minutes, with the page automatically refreshed every 10 minutes)

About weather observations | Map of weather stations | Latest weather observations for NSW | Other Formats
Station Details ID: 061250 Name: TOCAL AWS Lat: -32.63 Lon: 151.59 Height: 30.0 m
Data from the previous 72 hours. | See also: Recent months at Tocal
Date/Time
EST
Temp
°C
App
Temp
°C
Dew
Point
°C
Rel
Hum
%
Delta-T
°C
Wind Press
QNH
hPa
Press
MSL
hPa
Rain since
9am
mm
Dir  Spd
km/h
Gust
km/h
Spd
kts
Gust
kts
22/09:30pm 13.3 10.1 3.1 50 4.5 WSW 9 17 5 9 - - 0.0
22/09:00pm 13.1 9.9 2.9 50 4.5 WSW 9 13 5 7 - - 0.0
22/08:30pm 13.8 10.6 3.0 48 4.8 SSW 9 15 5 8 - - 0.0
22/08:00pm 13.9 10.3 3.1 48 4.8 SSW 11 19 6 10 - - 0.0
22/07:30pm 13.9 11.3 3.4 49 4.7 SSW 6 13 3 7 - - 0.0
22/07:00pm 14.0 10.6 3.8 50 4.6 SSW 11 17 6 9 - - 0.0
22/06:30pm 14.0 10.2 4.0 51 4.6 S 13 22 7 12 - - 0.0
22/06:00pm 13.9 10.3 5.0 55 4.2 S 13 22 7 12 - - 0.0
22/05:30pm 14.4 9.9 4.1 50 4.7 S 17 32 9 17 - - 0.0
22/05:00pm 14.9 11.3 4.9 51 4.7 S 13 20 7 11 - - 0.0
22/04:30pm 14.9 10.9 5.1 52 4.6 S 15 28 8 15 - - 0.0
22/04:00pm 15.7 11.8 5.3 50 4.9 S 15 28 8 15 - - 0.0
22/03:30pm 15.9 11.3 5.8 51 4.9 S 19 39 10 21 - - 0.0
22/03:00pm 17.1 13.2 7.2 52 4.9 S 17 30 9 16 - - 0.0
22/02:30pm 16.2 11.8 7.4 56 4.4 SSE 20 33 11 18 - - 0.0
22/02:00pm 16.5 11.9 8.0 57 4.3 SE 22 37 12 20 - - 0.0
22/01:30pm 21.0 15.1 1.8 28 8.9 SW 22 35 12 19 - - 0.0
22/01:00pm 21.3 14.6 3.5 31 8.5 W 28 44 15 24 - - 0.0
22/12:30pm 21.3 15.4 4.0 32 8.4 W 24 41 13 22 - - 0.0
22/12:00pm 20.0 12.2 2.8 32 8.0 W 33 56 18 30 - - 0.0
22/11:30am 20.3 13.5 3.1 32 8.1 WSW 28 46 15 25 - - 0.0
22/11:13am 19.9 12.7 3.2 33 7.9 W 30 48 16 26 - - 0.0
22/11:00am 19.6 14.4 3.7 35 7.5 W 20 32 11 17 - - 0.0
22/10:30am 18.9 12.0 4.7 39 6.8 WNW 30 56 16 30 - - 0.0
22/10:25am 18.9 11.9 4.3 38 7.0 WNW 30 54 16 29 - - 0.0
22/10:00am 18.7 13.1 5.2 41 6.6 WNW 24 44 13 24 - - 0.0
22/09:44am 18.3 11.8 4.8 41 6.5 WNW 28 48 15 26 - - 0.0
22/09:30am 18.1 12.0 5.0 42 6.3 WNW 26 43 14 23 - - 0.0
22/09:00am 17.3 11.5 4.6 43 6.0 WNW 24 39 13 21 - - 0.0
22/08:30am 17.1 11.7 4.4 43 6.0 WNW 22 39 12 21 - - 0.0
22/08:00am 15.7 9.8 4.1 46 5.4 WNW 24 37 13 20 - - 0.0
22/07:30am 15.9 11.0 4.3 46 5.4 WNW 19 44 10 24 - - 0.0
22/07:00am 15.5 9.7 4.6 48 5.1 WNW 24 44 13 24 - - 0.0
22/06:30am 14.8 9.8 4.8 51 4.7 WNW 20 44 11 24 - - 0.0
22/06:00am 15.2 9.5 5.1 51 4.8 WNW 24 46 13 25 - - 0.0
22/05:30am 15.1 9.8 5.0 51 4.8 WNW 22 41 12 22 - - 0.0
22/05:00am 15.1 10.4 5.0 51 4.8 WNW 19 35 10 19 - - 0.0
22/04:37am 15.4 9.0 5.0 50 4.9 NW 28 46 15 25 - - 0.0
22/04:30am 15.3 9.2 5.0 50 4.9 WNW 26 43 14 23 - - 0.0
22/04:03am 15.1 8.7 5.3 52 4.6 NW 28 46 15 25 - - 0.0
22/04:00am 15.2 8.5 5.4 52 4.7 NW 30 46 16 25 - - 0.0
22/03:32am 15.0 8.6 5.2 52 4.6 NW 28 46 15 25 - - 0.0
22/03:30am 15.3 9.3 5.5 52 4.7 NW 26 46 14 25 - - 0.0
22/03:19am 15.3 9.0 5.5 52 4.7 NW 28 54 15 29 - - 0.0
22/03:00am 15.2 9.2 5.4 52 4.7 NW 26 43 14 23 - - 0.0
22/02:30am 15.1 10.4 5.3 52 4.6 NW 19 33 10 18 - - 0.0
22/02:00am 15.3 10.0 5.2 51 4.8 NW 22 35 12 19 - - 0.0
22/01:30am 15.4 10.5 5.0 50 4.9 WNW 20 35 11 19 - - 0.0
22/01:00am 15.3 10.5 4.4 48 5.1 NW 19 33 10 18 - - 0.0
22/12:30am 15.3 10.5 4.7 49 5.0 NW 19 32 10 17 - - 0.0
22/12:00am 15.1 10.3 4.8 50 4.8 NW 19 28 10 15 - - 0.0
 
Date/Time
EST
Temp
°C
App
Temp
°C
Dew
Point
°C
Rel
Hum
%
Delta-T
°C
Wind Press
QNH
hPa
Press
MSL
hPa
Rain since
9am
mm
Dir  Spd
km/h
Gust
km/h
Spd
kts
Gust
kts
21/11:30pm 15.1 11.0 4.5 49 4.9 NW 15 33 8 18 - - 0.0
21/11:00pm 15.9 11.1 4.6 47 5.3 NW 19 37 10 20 - - 0.0
21/10:30pm 16.0 10.6 4.4 46 5.4 WNW 22 41 12 22 - - 0.0
21/10:00pm 16.3 11.4 4.0 44 5.7 WNW 19 33 10 18 - - 0.0
21/09:30pm 16.5 11.0 3.9 43 5.9 WNW 22 50 12 27 - - 0.0
21/09:00pm 16.5 11.0 3.9 43 5.9 WNW 22 43 12 23 - - 0.0
21/08:30pm 16.5 11.9 3.9 43 5.9 NW 17 33 9 18 - - 0.0
21/08:00pm 16.8 11.8 3.5 41 6.1 WNW 19 33 10 18 - - 0.0
21/07:30pm 17.3 12.2 3.2 39 6.5 WNW 19 32 10 17 - - 0.0
21/07:00pm 17.3 11.7 3.2 39 6.5 WNW 22 37 12 20 - - 0.0
21/06:30pm 17.8 13.1 2.9 37 6.9 W 17 32 9 17 - - 0.0
21/06:00pm 18.2 12.9 2.9 36 7.1 W 20 37 11 20 - - 0.0
21/05:30pm 18.5 13.4 3.9 38 6.9 WNW 20 37 11 20 - - 0.0
21/05:00pm 19.1 13.5 3.7 36 7.3 WNW 22 35 12 19 - - 0.0
21/04:30pm 19.5 13.9 3.6 35 7.5 WNW 22 37 12 20 - - 0.0
21/04:10pm 19.8 13.1 3.5 34 7.7 NW 28 48 15 26 - - 0.0
21/04:00pm 20.2 14.6 3.4 33 8.0 WNW 22 48 12 26 - - 0.0
21/03:30pm 20.6 14.3 3.8 33 8.0 WNW 26 48 14 26 - - 0.0
21/03:00pm 20.6 15.4 3.8 33 8.0 WNW 20 39 11 21 - - 0.0
21/02:31pm 20.8 14.2 4.0 33 8.1 NW 28 57 15 31 - - 0.0
21/02:30pm 20.9 14.6 4.0 33 8.1 NW 26 43 14 23 - - 0.0
21/02:00pm 20.8 14.5 4.0 33 8.1 NW 26 43 14 23 - - 0.0
21/01:30pm 20.3 11.6 3.9 34 7.9 NW 39 57 21 31 - - 0.0
21/01:00pm 20.4 12.4 4.0 34 7.9 NW 35 57 19 31 - - 0.0
21/12:30pm 19.8 12.7 3.5 34 7.7 NW 30 54 16 29 - - 0.0
21/12:00pm 20.2 13.2 4.3 35 7.7 WNW 30 52 16 28 - - 0.0
21/11:33am 19.4 11.9 3.6 35 7.5 NW 32 56 17 30 - - 0.0
21/11:30am 19.7 13.1 4.2 36 7.4 NW 28 43 15 23 - - 0.0
21/11:03am 18.7 11.6 3.3 36 7.2 NW 30 50 16 27 - - 0.0
21/11:00am 19.3 12.3 4.3 37 7.2 NW 30 48 16 26 - - 0.0
21/10:30am 17.8 12.2 3.3 38 6.7 WNW 22 37 12 20 - - 0.0
21/10:02am 17.1 10.4 3.4 40 6.3 WNW 28 48 15 26 - - 0.0
21/10:00am 17.5 11.7 4.5 42 6.2 WNW 24 46 13 25 - - 0.0
21/09:30am 17.0 11.8 3.7 41 6.2 W 20 35 11 19 - - 0.0
21/09:00am 15.8 9.8 3.6 44 5.6 WNW 24 46 13 25 - - 0.0
21/08:30am 15.3 9.4 3.8 46 5.3 WNW 24 43 13 23 - - 0.0
21/08:00am 14.4 8.4 3.2 47 5.0 WNW 24 46 13 25 - - 0.0
21/07:30am 13.8 7.8 3.3 49 4.7 WNW 24 52 13 28 - - 0.0
21/07:00am 13.0 7.4 3.4 52 4.3 WNW 22 37 12 20 - - 0.0
21/06:30am 12.3 7.1 3.3 54 4.0 NW 20 33 11 18 - - 0.0
21/06:00am 12.2 6.5 2.9 53 4.1 NW 22 37 12 20 - - 0.0
21/05:30am 12.2 5.7 2.9 53 4.1 NW 26 43 14 23 - - 0.0
21/05:00am 11.9 6.2 2.9 54 3.9 NW 22 41 12 22 - - 0.0
21/04:30am 11.8 7.0 2.8 54 3.9 NW 17 30 9 16 - - 0.0
21/04:00am 11.8 6.7 2.8 54 3.9 NW 19 37 10 20 - - 0.0
21/03:30am 11.8 6.7 2.8 54 3.9 NW 19 37 10 20 - - 0.0
21/03:00am 11.6 5.8 2.4 53 4.0 NW 22 33 12 18 - - 0.0
21/02:30am 11.9 7.1 2.6 53 4.0 NW 17 32 9 17 - - 0.0
21/02:00am 12.2 6.4 2.4 51 4.3 NW 22 39 12 21 - - 0.0
21/01:30am 12.0 6.2 2.2 51 4.2 NW 22 39 12 21 - - 0.0
21/01:00am 12.3 6.5 2.2 50 4.4 NW 22 33 12 18 - - 0.0
21/12:30am 12.6 5.6 2.2 49 4.5 NW 28 46 15 25 - - 0.0
21/12:29am 12.5 5.5 2.1 49 4.5 NW 28 46 15 25 - - 0.0
21/12:00am 12.7 7.2 2.0 48 4.6 NW 20 39 11 21 - - 0.0
 
Date/Time
EST
Temp
°C
App
Temp
°C
Dew
Point
°C
Rel
Hum
%
Delta-T
°C
Wind Press
QNH
hPa
Press
MSL
hPa
Rain since
9am
mm
Dir  Spd
km/h
Gust
km/h
Spd
kts
Gust
kts
20/11:30pm 13.4 7.9 1.7 45 5.1 WNW 20 43 11 23 - - 0.0
20/11:00pm 13.8 7.5 1.5 43 5.3 NW 24 43 13 23 - - 0.0
20/10:30pm 13.8 8.8 1.1 42 5.4 NW 17 37 9 20 - - 0.0
20/10:00pm 14.4 9.3 1.0 40 5.8 NNW 17 28 9 15 - - 0.0
20/09:30pm 15.0 9.5 0.8 38 6.1 WNW 19 37 10 20 - - 0.0
20/09:00pm 15.3 8.8 0.3 36 6.4 WNW 24 50 13 27 - - 0.0
20/08:30pm 15.8 9.3 0.0 34 6.7 WNW 24 41 13 22 - - 0.0
20/08:00pm 16.2 10.3 -0.5 32 7.1 WNW 20 35 11 19 - - 0.0
20/07:30pm 16.3 11.0 -0.8 31 7.2 WNW 17 28 9 15 - - 0.0
20/07:00pm 16.6 10.9 -1.0 30 7.4 WNW 19 33 10 18 - - 0.0
20/06:30pm 17.4 12.5 -0.8 29 7.7 WNW 15 24 8 13 - - 0.0
20/06:00pm 17.7 11.4 -1.0 28 7.9 WNW 22 33 12 18 - - 0.0
20/05:30pm 18.5 13.2 -0.8 27 8.3 W 17 28 9 15 - - 0.0
20/05:00pm 19.2 14.3 -0.7 26 8.6 WNW 15 33 8 18 - - 0.0
20/04:30pm 19.8 13.5 -0.8 25 8.9 WNW 22 44 12 24 - - 0.0
20/04:00pm 20.2 14.9 -0.4 25 9.0 NW 17 26 9 14 - - 0.0
20/03:30pm 20.7 14.6 0.5 26 9.1 NW 22 32 12 17 - - 0.0
20/03:18pm 20.2 13.6 -0.4 25 9.0 WNW 24 46 13 25 - - 0.0
20/03:00pm 20.3 13.8 0.2 26 8.9 NW 24 41 13 22 - - 0.0
20/02:30pm 19.9 14.4 0.4 27 8.7 WNW 19 32 10 17 - - 0.0
20/02:00pm 19.8 13.2 -0.2 26 8.8 WNW 24 39 13 21 - - 0.0
20/01:30pm 19.0 12.5 0.1 28 8.3 WNW 24 37 13 20 - - 0.0
20/01:00pm 19.0 13.4 1.1 30 8.0 WNW 20 32 11 17 - - 0.0
20/12:36pm 18.2 11.2 -0.6 28 8.1 NW 26 46 14 25 - - 0.0
20/12:30pm 18.7 12.6 0.3 29 8.1 NW 22 35 12 19 - - 0.0
20/12:00pm 17.6 12.0 -0.2 30 7.7 W 19 32 10 17 - - 0.0
20/11:30am 16.8 10.3 0.0 32 7.2 NW 24 43 13 23 - - 0.0
20/11:00am 16.0 9.8 -0.2 33 6.9 WNW 22 39 12 21 - - 0.0
20/10:30am 15.1 9.5 0.2 36 6.3 W 19 32 10 17 - - 0.0
20/10:00am 14.2 8.4 0.1 38 5.9 WNW 20 35 11 19 - - 0.0
20/09:30am 12.8 7.5 -0.8 39 5.5 WNW 17 32 9 17 - - 0.0
20/09:00am 12.0 7.1 -0.8 41 5.2 WNW 15 28 8 15 - - 0.0
20/08:30am 11.6 6.7 -0.5 43 4.9 NW 15 30 8 16 - - 0.0
20/08:00am 10.7 6.5 -0.7 45 4.5 WNW 11 19 6 10 - - 0.0
20/07:30am 9.0 6.2 -0.6 51 3.8 NNE 4 9 2 5 - - 0.0
20/07:00am 7.3 4.0 -1.6 53 3.3 ENE 6 9 3 5 - - 0.0
20/06:30am 6.9 3.9 -1.7 54 3.2 WSW 4 7 2 4 - - 0.0
20/06:00am 6.5 3.1 -1.9 55 3.1 N 6 7 3 4 - - 0.0
20/05:30am 7.0 3.0 -2.2 52 3.4 NNW 9 19 5 10 - - 0.0
20/05:00am 7.0 3.4 -2.2 52 3.4 W 7 17 4 9 - - 0.0
20/04:30am 7.1 3.1 -2.1 52 3.4 WNW 9 15 5 8 - - 0.0
20/04:00am 7.0 3.3 -3.0 49 3.6 WNW 7 13 4 7 - - 0.0
20/03:30am 7.7 4.2 -2.9 47 3.9 NNW 6 9 3 5 - - 0.0
20/03:00am 8.2 4.1 -3.0 45 4.1 NW 9 17 5 9 - - 0.0
20/02:30am 8.8 4.7 -3.1 43 4.4 NW 9 13 5 7 - - 0.0
20/02:00am 8.7 4.5 -3.5 42 4.4 NW 9 19 5 10 - - 0.0
20/01:30am 9.1 4.2 -3.4 41 4.6 NW 13 26 7 14 - - 0.0
20/01:00am 9.4 4.1 -3.2 41 4.7 WNW 15 30 8 16 - - 0.0
20/12:30am 9.3 4.4 -3.6 40 4.7 W 13 22 7 12 - - 0.0
20/12:00am 9.4 4.5 -3.8 39 4.8 W 13 20 7 11 - - 0.0
 
Date/Time
EST
Temp
°C
App
Temp
°C
Dew
Point
°C
Rel
Hum
%
Delta-T
°C
Wind Press
QNH
hPa
Press
MSL
hPa
Rain since
9am
mm
Dir  Spd
km/h
Gust
km/h
Spd
kts
Gust
kts
19/11:30pm 10.1 4.8 -3.9 37 5.1 W 15 28 8 15 - - 0.0
19/11:00pm 10.5 5.9 -3.9 36 5.3 W 11 15 6 8 - - 0.0
19/10:30pm 10.6 4.8 -4.2 35 5.4 W 17 28 9 15 - - 0.0
19/10:00pm 10.4 5.4 -4.4 35 5.4 W 13 24 7 13 - - 0.0

Other formats

Comma delimited format used in spreadsheet applications
http://www.bom.gov.au/fwo/IDN60801/IDN60801.94775.axf

JavaScript Object Notation format (JSON) in row-major order
http://www.bom.gov.au/fwo/IDN60801/IDN60801.94775.json

Data quality

Most of these data are generated automatically and are frequently updated. Quality checks on data are not normally performed. It is possible for incorrect values to appear. Refer to information at About Latest Weather Observations and please check the disclaimer before using these data.